Atlantic Salvor — WCX9569 — position and weather

sailwx.info

Track history (hours):
 
Tides and Currents Weather Stations Pressure Air Temp Water Temp Dewpoint Dewpoint Depression Visibility Wind Speed Wind Dir Waves Ship Positions

Atlantic Salvor

Owner: DONJON MARINE CO., INC., HILLSIDE, NJ. More information available from US FCC via Universal Licensing System and Coast Guard Vessel Documentation Center.

Last reported at 2018-May-23 22:00 UTC. Time now 2018-May-23 22:14 UTC.
Position N 39°45' W 075°29'.

Length 49 m; draft 6 m.

Type: Towing. MMSI: 366744010.

Date/timePositionNaut miles runAvg speedWind from/ knotsBaromVisibWave heightAir tempDewpointWater temp
2018-May-23 22:00N 39°45' W 075°29'4 8.6
2018-May-23 21:30N 39°41' W 075°31'4 8.4
2018-May-23 21:00N 39°38' W 075°35'4 7.9
2018-May-23 20:30N 39°34' W 075°33'4 7.5
2018-May-23 20:00N 39°30' W 075°33'4 7.1
2018-May-23 19:30N 39°27' W 075°33'4 7.4
2018-May-23 19:00N 39°24' W 075°30'3 6.7
2018-May-23 18:30N 39°21' W 075°27'3 6.2
2018-May-23 18:00N 39°19' W 075°24'3 5.9
2018-May-23 17:30N 39°17' W 075°22'3 5.8
2018-May-23 17:00N 39°15' W 075°19'2 4.7
2018-May-23 16:30N 39°13' W 075°17'2 5.0
2018-May-23 16:00N 39°11' W 075°16'4 5.2
2018-May-23 15:17N 39°07' W 075°13'1 5.1
2018-May-23 15:00N 39°06' W 075°12'50 2.4
2018-May-22 18:26N 38°47' W 074°13'2 5.5
2018-May-22 18:00N 38°44' W 074°13'3 5.1
2018-May-22 17:29N 38°42' W 074°14'2 4.4
2018-May-22 17:00N 38°42' W 074°17'2 4.3
2018-May-22 16:30N 38°42' W 074°20'2 4.2
2018-May-22 16:01N 38°42' W 074°22'2 3.6
2018-May-22 15:30N 38°43' W 074°23'3 5.0
2018-May-22 15:00N 38°46' W 074°22'2 5.0
2018-May-22 14:30N 38°48' W 074°22'2 5.0
2018-May-22 14:00N 38°51' W 074°21'2 4.9
2018-May-22 13:31N 38°53' W 074°20'3 5.5
2018-May-22 13:00N 38°53' W 074°17'3 5.6
2018-May-22 12:31N 38°53' W 074°13'2 3.7
2018-May-22 12:00N 38°52' W 074°11'2 5.0
2018-May-22 11:30N 38°50' W 074°12'2 4.8
2018-May-22 11:00N 38°48' W 074°13'2 4.7
2018-May-22 10:30N 38°45' W 074°14'2 4.7
2018-May-22 10:00N 38°43' W 074°15'2 4.6
2018-May-22 09:30N 38°41' W 074°16'2 3.6
2018-May-22 09:00N 38°41' W 074°18'3 5.2
2018-May-22 08:31N 38°43' W 074°18'3 5.3
2018-May-22 08:01N 38°46' W 074°17'3 5.3
2018-May-22 07:31N 38°48' W 074°16'3 5.0
2018-May-22 07:01N 38°51' W 074°16'2 4.9
2018-May-22 06:31N 38°53' W 074°15'3 5.1
2018-May-22 06:01N 38°55' W 074°14'3 5.0
2018-May-22 05:30N 38°58' W 074°13'2 4.9
2018-May-22 05:01N 38°59' W 074°10'3 5.0
2018-May-22 04:31N 39°00' W 074°07'3 5.1
2018-May-22 04:01N 39°01' W 074°04'3 5.2
2018-May-22 03:30N 39°01' W 074°01'3 5.4
2018-May-22 03:00N 39°00' W 073°57'3 5.6
2018-May-22 02:27N 38°60' W 073°53'3 5.6
2018-May-22 01:58N 38°59' W 073°50'3 5.6
2018-May-22 01:30N 38°58' W 073°47'19 2.6
2018-May-21 18:23N 38°52' W 074°09'3 4.5
2018-May-21 17:48N 38°52' W 074°12'3 3.3
2018-May-21 16:48N 38°55' W 074°11'2 5.2
2018-May-21 16:30N 38°56' W 074°09'  
2018-May-18 22:53N 40°33' W 074°02'511.8
2018-May-18 22:30N 40°37' W 074°03'5 8.8
2018-May-18 21:58N 40°39' W 074°09'2 5.4
2018-May-18 21:30N 40°41' W 074°08'0 0.0
2018-May-18 20:59N 40°41' W 074°08'0 0.0
2018-May-18 20:30N 40°41' W 074°08'0 0.0
2018-May-18 20:00N 40°41' W 074°08'0 0.0
2018-May-18 19:28N 40°41' W 074°08'0 0.0
2018-May-18 18:52N 40°41' W 074°08'0 0.0
2018-May-18 18:27N 40°41' W 074°08'0 0.0
2018-May-18 18:00N 40°41' W 074°08'0 0.0
2018-May-18 16:46N 40°41' W 074°08'0 0.0
2018-May-18 16:28N 40°41' W 074°08'0 0.2
2018-May-18 16:00N 40°41' W 074°08'0 0.0
2018-May-18 15:30N 40°41' W 074°08'0 0.0
2018-May-18 14:59N 40°41' W 074°08'0 0.0
2018-May-18 12:28N 40°41' W 074°08'0 0.0
2018-May-18 11:56N 40°41' W 074°08'0 0.0
2018-May-18 11:29N 40°41' W 074°08'0 0.0
2018-May-18 10:57N 40°41' W 074°08'0 0.0
2018-May-18 10:29N 40°41' W 074°08'0 0.0
2018-May-18 09:58N 40°41' W 074°08'0 0.0
2018-May-18 08:34N 40°41' W 074°08'0 0.0
2018-May-18 08:15N 40°41' W 074°08'0 0.0
2018-May-18 07:57N 40°41' W 074°08'0 0.0
2018-May-18 07:29N 40°41' W 074°08'0 0.0
2018-May-18 05:44N 40°41' W 074°08'0 0.0
2018-May-18 05:30N 40°41' W 074°08'0 0.0
2018-May-18 05:00N 40°41' W 074°08'0 0.0
2018-May-18 04:30N 40°41' W 074°08'0 0.0
2018-May-18 03:59N 40°41' W 074°08'0 0.0
2018-May-18 03:30N 40°41' W 074°08'0 0.0
2018-May-18 03:00N 40°41' W 074°08'0 0.0
2018-May-18 02:24N 40°41' W 074°08'0 0.0
2018-May-18 01:59N 40°41' W 074°08'0 0.0
2018-May-18 01:28N 40°41' W 074°08'0 0.0
2018-May-18 00:55N 40°41' W 074°08'0 0.0
2018-May-18 00:30N 40°41' W 074°08'0 0.1
2018-May-17 21:19N 40°42' W 074°08'0 0.6
2018-May-17 20:59N 40°41' W 074°08'0 0.0
2018-May-17 19:21N 40°41' W 074°08'0 0.3
2018-May-17 19:00N 40°42' W 074°08'0 0.1
2018-May-17 18:30N 40°42' W 074°08'0 0.0
2018-May-17 18:00N 40°42' W 074°08'0 0.0
2018-May-17 17:30N 40°42' W 074°08'0 0.0
2018-May-17 17:00N 40°42' W 074°08'0 0.0
2018-May-17 16:30N 40°42' W 074°08'0 0.0
2018-May-17 16:00N 40°42' W 074°08'0 0.0
2018-May-17 15:30N 40°42' W 074°08'0 0.0
2018-May-17 15:00N 40°42' W 074°08'0 0.0
2018-May-17 14:30N 40°42' W 074°08'0 0.0
2018-May-17 14:00N 40°42' W 074°08'0 0.0
2018-May-17 13:30N 40°42' W 074°08'0 0.0
2018-May-17 12:59N 40°42' W 074°08'0 0.0
2018-May-16 21:23N 40°42' W 074°09'3 8.7
2018-May-16 21:00N 40°39' W 074°09'2 3.1
2018-May-16 20:30N 40°39' W 074°07'0 0.0
2018-May-16 18:54N 40°39' W 074°07'0 0.0
2018-May-16 17:54N 40°39' W 074°07'0 0.0
2018-May-16 17:24N 40°39' W 074°07'0 0.0
2018-May-16 17:00N 40°39' W 074°07'0 0.0
2018-May-16 16:21N 40°39' W 074°07'0 0.0
2018-May-16 15:59N 40°39' W 074°07'0 0.0
2018-May-16 15:30N 40°39' W 074°07'0 0.0
2018-May-16 15:00N 40°39' W 074°07'0 0.0
2018-May-16 14:29N 40°39' W 074°07'0 0.0
2018-May-16 14:00N 40°39' W 074°07'0 0.0
2018-May-16 13:30N 40°39' W 074°07'0 0.0
2018-May-16 13:00N 40°39' W 074°07'0 0.0
2018-May-16 12:30N 40°39' W 074°07'0 0.0
2018-May-16 12:00N 40°39' W 074°07'0 0.0
2018-May-16 11:28N 40°39' W 074°07'0 0.0
2018-May-16 11:00N 40°39' W 074°07'2 3.5
2018-May-16 10:30N 40°39' W 074°09'  
Track history (hours):
 
Tides and Currents Weather Stations Pressure Air Temp Water Temp Dewpoint Dewpoint Depression Visibility Wind Speed Wind Dir Waves Ship Positions

Atlantic Salvor

Owner: DONJON MARINE CO., INC., HILLSIDE, NJ. More information available from US FCC via Universal Licensing System and Coast Guard Vessel Documentation Center.

Last reported at 2018-May-23 22:00 UTC. Time now 2018-May-23 22:14 UTC.
Position N 39°45' W 075°29'.

Length 49 m; draft 6 m.

Type: Towing. MMSI: 366744010.

Date/timePositionNaut miles runAvg speedWind from/ knotsBaromVisibWave heightAir tempDewpointWater temp
2018-May-23 22:00N 39°45' W 075°29'4 8.6
2018-May-23 21:30N 39°41' W 075°31'4 8.4
2018-May-23 21:00N 39°38' W 075°35'4 7.9
2018-May-23 20:30N 39°34' W 075°33'4 7.5
2018-May-23 20:00N 39°30' W 075°33'4 7.1
2018-May-23 19:30N 39°27' W 075°33'4 7.4
2018-May-23 19:00N 39°24' W 075°30'3 6.7
2018-May-23 18:30N 39°21' W 075°27'3 6.2
2018-May-23 18:00N 39°19' W 075°24'3 5.9
2018-May-23 17:30N 39°17' W 075°22'3 5.8
2018-May-23 17:00N 39°15' W 075°19'2 4.7
2018-May-23 16:30N 39°13' W 075°17'2 5.0
2018-May-23 16:00N 39°11' W 075°16'4 5.2
2018-May-23 15:17N 39°07' W 075°13'1 5.1
2018-May-23 15:00N 39°06' W 075°12'50 2.4
2018-May-22 18:26N 38°47' W 074°13'2 5.5
2018-May-22 18:00N 38°44' W 074°13'3 5.1
2018-May-22 17:29N 38°42' W 074°14'2 4.4
2018-May-22 17:00N 38°42' W 074°17'2 4.3
2018-May-22 16:30N 38°42' W 074°20'2 4.2
2018-May-22 16:01N 38°42' W 074°22'2 3.6
2018-May-22 15:30N 38°43' W 074°23'3 5.0
2018-May-22 15:00N 38°46' W 074°22'2 5.0
2018-May-22 14:30N 38°48' W 074°22'2 5.0
2018-May-22 14:00N 38°51' W 074°21'2 4.9
2018-May-22 13:31N 38°53' W 074°20'3 5.5
2018-May-22 13:00N 38°53' W 074°17'3 5.6
2018-May-22 12:31N 38°53' W 074°13'2 3.7
2018-May-22 12:00N 38°52' W 074°11'2 5.0
2018-May-22 11:30N 38°50' W 074°12'2 4.8
2018-May-22 11:00N 38°48' W 074°13'2 4.7
2018-May-22 10:30N 38°45' W 074°14'2 4.7
2018-May-22 10:00N 38°43' W 074°15'2 4.6
2018-May-22 09:30N 38°41' W 074°16'2 3.6
2018-May-22 09:00N 38°41' W 074°18'3 5.2
2018-May-22 08:31N 38°43' W 074°18'3 5.3
2018-May-22 08:01N 38°46' W 074°17'3 5.3
2018-May-22 07:31N 38°48' W 074°16'3 5.0
2018-May-22 07:01N 38°51' W 074°16'2 4.9
2018-May-22 06:31N 38°53' W 074°15'3 5.1
2018-May-22 06:01N 38°55' W 074°14'3 5.0
2018-May-22 05:30N 38°58' W 074°13'2 4.9
2018-May-22 05:01N 38°59' W 074°10'3 5.0
2018-May-22 04:31N 39°00' W 074°07'3 5.1
2018-May-22 04:01N 39°01' W 074°04'3 5.2
2018-May-22 03:30N 39°01' W 074°01'3 5.4
2018-May-22 03:00N 39°00' W 073°57'3 5.6
2018-May-22 02:27N 38°60' W 073°53'3 5.6
2018-May-22 01:58N 38°59' W 073°50'3 5.6
2018-May-22 01:30N 38°58' W 073°47'19 2.6
2018-May-21 18:23N 38°52' W 074°09'3 4.5
2018-May-21 17:48N 38°52' W 074°12'3 3.3
2018-May-21 16:48N 38°55' W 074°11'2 5.2
2018-May-21 16:30N 38°56' W 074°09'  
2018-May-18 22:53N 40°33' W 074°02'511.8
2018-May-18 22:30N 40°37' W 074°03'5 8.8
2018-May-18 21:58N 40°39' W 074°09'2 5.4
2018-May-18 21:30N 40°41' W 074°08'0 0.0
2018-May-18 20:59N 40°41' W 074°08'0 0.0
2018-May-18 20:30N 40°41' W 074°08'0 0.0
2018-May-18 20:00N 40°41' W 074°08'0 0.0
2018-May-18 19:28N 40°41' W 074°08'0 0.0
2018-May-18 18:52N 40°41' W 074°08'0 0.0
2018-May-18 18:27N 40°41' W 074°08'0 0.0
2018-May-18 18:00N 40°41' W 074°08'0 0.0
2018-May-18 16:46N 40°41' W 074°08'0 0.0
2018-May-18 16:28N 40°41' W 074°08'0 0.2
2018-May-18 16:00N 40°41' W 074°08'0 0.0
2018-May-18 15:30N 40°41' W 074°08'0 0.0
2018-May-18 14:59N 40°41' W 074°08'0 0.0
2018-May-18 12:28N 40°41' W 074°08'0 0.0
2018-May-18 11:56N 40°41' W 074°08'0 0.0
2018-May-18 11:29N 40°41' W 074°08'0 0.0
2018-May-18 10:57N 40°41' W 074°08'0 0.0
2018-May-18 10:29N 40°41' W 074°08'0 0.0
2018-May-18 09:58N 40°41' W 074°08'0 0.0
2018-May-18 08:34N 40°41' W 074°08'0 0.0
2018-May-18 08:15N 40°41' W 074°08'0 0.0
2018-May-18 07:57N 40°41' W 074°08'0 0.0
2018-May-18 07:29N 40°41' W 074°08'0 0.0
2018-May-18 05:44N 40°41' W 074°08'0 0.0
2018-May-18 05:30N 40°41' W 074°08'0 0.0
2018-May-18 05:00N 40°41' W 074°08'0 0.0
2018-May-18 04:30N 40°41' W 074°08'0 0.0
2018-May-18 03:59N 40°41' W 074°08'0 0.0
2018-May-18 03:30N 40°41' W 074°08'0 0.0
2018-May-18 03:00N 40°41' W 074°08'0 0.0
2018-May-18 02:24N 40°41' W 074°08'0 0.0
2018-May-18 01:59N 40°41' W 074°08'0 0.0
2018-May-18 01:28N 40°41' W 074°08'0 0.0
2018-May-18 00:55N 40°41' W 074°08'0 0.0
2018-May-18 00:30N 40°41' W 074°08'0 0.1
2018-May-17 21:19N 40°42' W 074°08'0 0.6
2018-May-17 20:59N 40°41' W 074°08'0 0.0
2018-May-17 19:21N 40°41' W 074°08'0 0.3
2018-May-17 19:00N 40°42' W 074°08'0 0.1
2018-May-17 18:30N 40°42' W 074°08'0 0.0
2018-May-17 18:00N 40°42' W 074°08'0 0.0
2018-May-17 17:30N 40°42' W 074°08'0 0.0
2018-May-17 17:00N 40°42' W 074°08'0 0.0
2018-May-17 16:30N 40°42' W 074°08'0 0.0
2018-May-17 16:00N 40°42' W 074°08'0 0.0
2018-May-17 15:30N 40°42' W 074°08'0 0.0
2018-May-17 15:00N 40°42' W 074°08'0 0.0
2018-May-17 14:30N 40°42' W 074°08'0 0.0
2018-May-17 14:00N 40°42' W 074°08'0 0.0
2018-May-17 13:30N 40°42' W 074°08'0 0.0
2018-May-17 12:59N 40°42' W 074°08'0 0.0
2018-May-16 21:23N 40°42' W 074°09'3 8.7
2018-May-16 21:00N 40°39' W 074°09'2 3.1
2018-May-16 20:30N 40°39' W 074°07'0 0.0
2018-May-16 18:54N 40°39' W 074°07'0 0.0
2018-May-16 17:54N 40°39' W 074°07'0 0.0
2018-May-16 17:24N 40°39' W 074°07'0 0.0
2018-May-16 17:00N 40°39' W 074°07'0 0.0
2018-May-16 16:21N 40°39' W 074°07'0 0.0
2018-May-16 15:59N 40°39' W 074°07'0 0.0
2018-May-16 15:30N 40°39' W 074°07'0 0.0
2018-May-16 15:00N 40°39' W 074°07'0 0.0
2018-May-16 14:29N 40°39' W 074°07'0 0.0
2018-May-16 14:00N 40°39' W 074°07'0 0.0
2018-May-16 13:30N 40°39' W 074°07'0 0.0
2018-May-16 13:00N 40°39' W 074°07'0 0.0
2018-May-16 12:30N 40°39' W 074°07'0 0.0
2018-May-16 12:00N 40°39' W 074°07'0 0.0
2018-May-16 11:28N 40°39' W 074°07'0 0.0
2018-May-16 11:00N 40°39' W 074°07'2 3.5
2018-May-16 10:30N 40°39' W 074°09'  

Dump ship's entire track history